Data for 03/11/2009

Time Sea-Level Adjusted Pressure Absolute Pressure Temperature Relative Humidity Dew Point   
(mb) (inHg) (mb) (inHg) (C) (F) (%) (C) (F)
00:05 1021 30.15 850 25.1 -16.8 1.7 83 -19.1 -2.3
00:10 1021 30.15 850 25.1 -16.8 1.7 83 -19.1 -2.5
00:15 1021 30.15 851 25.13 -16.8 1.7 81 -19.3 -2.7
00:20 1021 30.15 851 25.13 -17.1 1.3 82 -19.5 -3
00:25 1021 30.15 851 25.13 -17.4 0.7 82 -19.7 -3.5
00:30 1021 30.15 851 25.13 -17.6 0.2 83 -19.9 -3.8
00:35 1021 30.15 851 25.13 -17.9 -0.1 83 -20.1 -4.2
00:40 1021 30.15 851 25.13 -18 -0.4 84 -20.1 -4.3
00:45 1022 30.18 851 25.13 -18.3 -0.9 84 -20.3 -4.6
00:50 1022 30.18 851 25.13 -18.5 -1.3 84 -20.5 -5
00:55 1022 30.18 851 25.13 -18.7 -1.6 86 -20.5 -5
01:00 1022 30.18 851 25.13 -18.7 -1.7 84 -20.8 -5.4
01:05 1022 30.18 851 25.13 -18.9 -2 85 -20.9 -5.6
01:10 1022 30.18 851 25.13 -19 -2.1 84 -21 -5.9
01:15 1022 30.18 851 25.13 -19 -2.2 86 -20.8 -5.4
01:20 1022 30.18 851 25.13 -19 -2.1 85 -20.8 -5.5
01:25 1022 30.18 851 25.13 -18.9 -2.1 85 -20.9 -5.6
01:30 1022 30.18 851 25.13 -18.9 -2.1 83 -21.2 -6.1
01:35 1022 30.18 851 25.13 -19 -2.2 83 -21.3 -6.3
01:40 1022 30.18 851 25.13 -19.2 -2.6 81 -21.7 -7.1
01:45 1022 30.18 851 25.13 -19.5 -3 81 -21.9 -7.4
01:50 1022 30.18 851 25.13 -19.7 -3.4 82 -21.9 -7.5
01:55 1022 30.18 851 25.13 -19.7 -3.4 82 -22 -7.6
02:00 1022 30.18 851 25.13 -19.8 -3.6 84 -21.8 -7.3
02:05 1022 30.18 851 25.13 -19.9 -3.9 87 -21.5 -6.8
02:10 1022 30.18 851 25.13 -19.8 -3.6 87 -21.5 -6.7
02:15 1022 30.18 851 25.13 -19.7 -3.5 87 -21.4 -6.6
02:20 1022 30.18 851 25.13 -19.7 -3.5 85 -21.6 -6.9
02:25 1022 30.18 851 25.13 -19.8 -3.7 85 -21.8 -7.2
02:30 1022 30.18 851 25.13 -19.9 -3.8 86 -21.7 -7.1
02:35 1022 30.18 851 25.13 -19.9 -3.7 86 -21.7 -7
02:40 1022 30.18 851 25.13 -19.7 -3.4 84 -21.7 -7.1
02:45 1022 30.18 851 25.13 -19.7 -3.5 83 -21.9 -7.4
02:50 1022 30.18 851 25.13 -19.9 -3.8 81 -22.4 -8.3
02:55 1022 30.18 851 25.13 -20 -4 82 -22.3 -8.2
03:00 1022 30.18 851 25.13 -20 -4.1 83 -22.2 -8
03:05 1022 30.18 851 25.13 -20 -3.9 86 -21.7 -7.1
03:10 1022 30.18 851 25.13 -20 -4.1 86 -21.8 -7.2
03:15 1022 30.18 851 25.13 -19.9 -3.9 85 -21.9 -7.4
03:20 1022 30.18 851 25.13 -20.1 -4.2 81 -22.7 -8.8
03:25 1022 30.18 851 25.13 -20.6 -5 82 -22.9 -9.1
03:30 1022 30.18 851 25.13 -20.6 -5.1 83 -22.8 -9
03:35 1022 30.18 851 25.13 -20.3 -4.6 84 -22.4 -8.3
03:40 1022 30.18 851 25.13 -20.2 -4.4 81 -22.7 -8.8
03:45 1022 30.18 851 25.13 -20.3 -4.5 79 -23 -9.4
03:50 1022 30.18 851 25.13 -20.4 -4.7 81 -22.9 -9.1
03:55 1021 30.15 851 25.13 -20.5 -4.8 82 -22.8 -9
04:00 1021 30.15 851 25.13 -20.5 -4.9 79 -23.3 -9.9
04:05 1021 30.15 851 25.13 -20.7 -5.3 83 -22.9 -9.2
04:10 1021 30.15 851 25.13 -20.8 -5.4 84 -22.8 -9.1
04:15 1021 30.15 851 25.13 -20.8 -5.4 81 -23.3 -9.9
04:20 1021 30.15 851 25.13 -20.9 -5.7 82 -23.3 -9.9
04:25 1021 30.15 850 25.1 -21 -5.9 81 -23.5 -10.4
04:30 1021 30.15 850 25.1 -21.1 -6 81 -23.6 -10.5
04:35 1021 30.15 850 25.1 -21.3 -6.3 81 -23.7 -10.6
04:40 1021 30.15 850 25.1 -21.4 -6.5 80 -23.9 -11.1
04:45 1021 30.15 850 25.1 -21.4 -6.5 83 -23.6 -10.5
04:50 1021 30.15 850 25.1 -21.2 -6.2 82 -23.5 -10.3
04:55 1021 30.15 850 25.1 -21.3 -6.3 82 -23.6 -10.5
05:00 1021 30.15 850 25.1 -21.4 -6.4 81 -23.7 -10.7
05:05 1021 30.15 850 25.1 -21.3 -6.4 86 -23.1 -9.5
05:10 1021 30.15 850 25.1 -20.8 -5.5 89 -22.1 -7.9
05:15 1021 30.15 850 25.1 -20.6 -5.1 83 -22.8 -9
05:20 1021 30.15 850 25.1 -20.8 -5.4 83 -23 -9.4
05:25 1021 30.15 850 25.1 -21.1 -6 83 -23.3 -10
05:30 1021 30.15 850 25.1 -21.5 -6.6 89 -22.8 -9.1
05:35 1021 30.15 850 25.1 -20.8 -5.5 90 -22.1 -7.7
05:40 1021 30.15 850 25.1 -20.3 -4.5 87 -21.9 -7.4
05:45 1021 30.15 850 25.1 -20.1 -4.3 86 -21.9 -7.4
05:50 1021 30.15 851 25.13 -20.1 -4.1 82 -22.4 -8.3
05:55 1021 30.15 851 25.13 -20.3 -4.6 81 -22.8 -9
06:00 1021 30.15 851 25.13 -20.6 -5.2 80 -23.2 -9.8
06:05 1021 30.15 851 25.13 -20.9 -5.7 82 -23.3 -9.9
06:10 1021 30.15 851 25.13 -21.2 -6.2 81 -23.7 -10.7
06:15 1021 30.15 851 25.13 -21.4 -6.6 80 -24 -11.2
06:20 1021 30.15 851 25.13 -21.7 -7.1 80 -24.3 -11.8
06:25 1022 30.18 851 25.13 -21.9 -7.3 82 -24.1 -11.4
06:30 1022 30.18 851 25.13 -21.8 -7.3 84 -23.8 -10.8
06:35 1022 30.18 851 25.13 -21.8 -7.2 83 -24 -11.1
06:40 1022 30.18 851 25.13 -21.7 -7.1 83 -23.9 -11
06:45 1022 30.18 851 25.13 -21.7 -7 83 -23.8 -10.9
06:50 1021 30.15 851 25.13 -21.5 -6.8 85 -23.4 -10.2
06:55 1021 30.15 851 25.13 -21.4 -6.5 85 -23.3 -9.9
07:00 1021 30.15 851 25.13 -21.4 -6.4 89 -22.7 -8.8
07:05 1021 30.15 851 25.13 -21 -5.9 89 -22.4 -8.3
07:10 1021 30.15 851 25.13 -20.9 -5.5 89 -22.2 -8
07:15 1021 30.15 851 25.13 -20.7 -5.3 89 -22.1 -7.9
07:20 1021 30.15 851 25.13 -20.7 -5.2 87 -22.3 -8.2
07:25 1021 30.15 851 25.13 -20.7 -5.3 86 -22.5 -8.5
07:30 1021 30.15 850 25.1 -20.8 -5.5 87 -22.5 -8.4
07:35 1021 30.15 851 25.13 -20.7 -5.2 87 -22.3 -8.1
07:40 1021 30.15 851 25.13 -20.3 -4.5 86 -22.1 -7.8
07:45 1021 30.15 851 25.13 -20 -4 85 -22 -7.6
07:50 1021 30.15 851 25.13 -20 -4 84 -22.1 -7.7
07:55 1021 30.15 851 25.13 -20.1 -4.1 84 -22.1 -7.8
08:00 1021 30.15 851 25.13 -19.9 -3.9 85 -21.8 -7.3
08:05 1021 30.15 851 25.13 -19.3 -2.8 85 -21.3 -6.3
08:10 1021 30.15 851 25.13 -18.8 -1.8 84 -20.8 -5.4
08:15 1022 30.18 851 25.13 -18.3 -1 83 -20.5 -4.9
08:20 1021 30.15 851 25.13 -18.4 -1.1 80 -21.1 -6
08:25 1021 30.15 851 25.13 -19 -2.1 81 -21.5 -6.7
08:30 1022 30.18 851 25.13 -18.8 -1.9 81 -21.4 -6.4
08:35 1022 30.18 851 25.13 -18.5 -1.3 82 -20.8 -5.5
08:40 1022 30.18 851 25.13 -17.9 -0.3 81 -20.5 -4.8
08:45 1022 30.18 851 25.13 -17.5 0.6 80 -20.1 -4.3
08:50 1022 30.18 851 25.13 -17.3 0.9 80 -19.9 -3.9
08:55 1022 30.18 851 25.13 -16.8 1.7 78 -19.8 -3.6
09:00 1022 30.18 851 25.13 -16.6 2.2 76 -19.9 -3.9
09:05 1022 30.18 851 25.13 -16.5 2.3 76 -19.9 -3.8
09:10 1022 30.18 851 25.13 -15.9 3.4 75 -19.3 -2.8
09:15 1021 30.15 851 25.13 -15 4.9 71 -19.2 -2.5
09:20 1021 30.15 851 25.13 -15.1 4.8 71 -19.2 -2.6
09:25 1021 30.15 851 25.13 -14.7 5.6 68 -19.3 -2.7
09:30 1021 30.15 851 25.13 -14.4 6.1 68 -19 -2.2
09:35 1021 30.15 851 25.13 -14.3 6.2 68 -19 -2.2
09:40 1021 30.15 851 25.13 -13.8 7.2 67 -18.6 -1.5
09:45 1021 30.15 851 25.13 -14.2 6.5 70 -18.5 -1.3
09:50 1021 30.15 851 25.13 -13.5 7.6 67 -18.5 -1.2
09:55 1021 30.15 851 25.13 -13.3 8.1 64 -18.6 -1.5
10:00 1021 30.15 851 25.13 -12.8 9 63 -18.5 -1.2
10:05 1021 30.15 851 25.13 -12.6 9.3 60 -18.8 -1.8
10:10 1021 30.15 851 25.13 -12.1 10.2 58 -18.9 -2
10:15 1021 30.15 851 25.13 -12.1 10.2 57 -19.1 -2.4
10:20 1021 30.15 851 25.13 -12.3 9.9 56 -19.5 -3
10:25 1021 30.15 851 25.13 -12.5 9.5 57 -19.3 -2.8
10:30 1021 30.15 851 25.13 -12.8 9.1 58 -19.3 -2.8
10:35 1022 30.18 851 25.13 -13.3 8.1 59 -19.7 -3.5
10:40 1021 30.15 851 25.13 -12.4 9.7 56 -19.4 -3
10:45 1021 30.15 851 25.13 -12.4 9.6 59 -19 -2.1
10:50 1021 30.15 851 25.13 -12.8 9.1 60 -18.9 -2
10:55 1021 30.15 851 25.13 -12.6 9.2 60 -19 -2.2
11:00 1021 30.15 851 25.13 -12.1 10.2 58 -18.7 -1.7
11:05 1021 30.15 851 25.13 -12.3 9.8 61 -18.4 -1.2
11:10 1021 30.15 850 25.1 -12.4 9.6 61 -18.5 -1.3
11:15 1021 30.15 850 25.1 -11.9 10.7 58 -18.6 -1.4
11:20 1021 30.15 850 25.1 -11.8 10.7 60 -18.1 -0.6
11:25 1021 30.15 850 25.1 -12 10.4 61 -18.1 -0.6
11:30 1021 30.15 850 25.1 -11.2 11.9 56 -18.3 -0.9
11:35 1021 30.15 850 25.1 -10 14.1 53 -17.9 -0.2
11:40 1021 30.15 850 25.1 -9.5 15 50 -18.1 -0.6
11:45 1021 30.15 850 25.1 -9.8 14.4 53 -17.7 0.1
11:50 1021 30.15 850 25.1 -9.7 14.6 53 -17.7 0.2
11:55 1021 30.15 850 25.1 -9.7 14.5 53 -17.7 0.2
12:00 1021 30.15 850 25.1 -9.8 14.4 54 -17.5 0.5
12:05 1021 30.15 850 25.1 -9.4 15.1 51 -17.8 -0
12:10 1021 30.15 850 25.1 -9 15.8 52 -17.2 1
12:15 1021 30.15 850 25.1 -9 15.7 51 -17.4 0.7
12:20 1021 30.15 850 25.1 -8.6 16.5 48 -17.6 0.2
12:25 1021 30.15 850 25.1 -8.5 16.8 50 -17.1 1.2
12:30 1021 30.15 850 25.1 -8.6 16.5 52 -16.8 1.8
12:35 1021 30.15 850 25.1 -8.9 15.9 53 -16.8 1.8
12:40 1021 30.15 850 25.1 -10.1 13.8 59 -16.8 1.8
12:45 1021 30.15 850 25.1 -9.2 15.5 51 -17.6 0.3
12:50 1021 30.15 850 25.1 -8.9 16 55 -16.3 2.6
12:55 1021 30.15 850 25.1 -8.7 16.3 52 -16.9 1.6
13:00 1021 30.15 850 25.1 -8.6 16.5 54 -16.4 2.5
13:05 1021 30.15 850 25.1 -9 15.9 54 -16.6 2.1
13:10 1021 30.15 850 25.1 -8.6 16.5 54 -16.3 2.7
13:15 1021 30.15 850 25.1 -8.3 17 53 -16.4 2.6
13:20 1021 30.15 850 25.1 -7.9 17.8 54 -15.7 3.7
13:25 1021 30.15 850 25.1 -8.2 17.3 53 -16.3 2.7
13:30 1021 30.15 850 25.1 -8.2 17.2 54 -15.9 3.3
13:35 1021 30.15 850 25.1 -7.6 18.4 51 -16.1 3
13:40 1021 30.15 850 25.1 -7.6 18.4 50 -16.2 2.8
13:45 1021 30.15 850 25.1 -8.1 17.5 55 -15.7 3.7
13:50 1021 30.15 850 25.1 -7.9 17.8 54 -15.8 3.6
13:55 1021 30.15 850 25.1 -8.3 17.1 56 -15.7 3.8
14:00 1021 30.15 850 25.1 -8.4 17 55 -15.8 3.5
14:05 1021 30.15 850 25.1 -8.7 16.4 54 -16.3 2.7
14:10 1021 30.15 850 25.1 -9.1 15.7 56 -16.3 2.7
14:15 1021 30.15 850 25.1 -8.7 16.4 57 -15.7 3.7
14:20 1021 30.15 850 25.1 -7.8 17.9 55 -15.4 4.2
14:25 1021 30.15 850 25.1 -7.4 18.7 55 -14.9 5.1
14:30 1020 30.12 850 25.1 -7.1 19.2 53 -15.2 4.7
14:35 1020 30.12 850 25.1 -6.9 19.5 51 -15.5 4.1
14:40 1020 30.12 850 25.1 -6.2 20.8 50 -14.9 5.1
14:45 1020 30.12 850 25.1 -5.5 22.1 50 -14.4 6
14:50 1020 30.12 849 25.07 -6.3 20.6 50 -15.1 4.9
14:55 1020 30.12 849 25.07 -6.1 21 50 -15 5
15:00 1020 30.12 849 25.07 -6.8 19.8 53 -14.9 5.3
15:05 1020 30.12 849 25.07 -6.9 19.6 54 -14.8 5.3
15:10 1020 30.12 849 25.07 -7.2 19 51 -15.6 3.9
15:15 1020 30.12 849 25.07 -7.2 19.1 51 -15.6 3.8
15:20 1020 30.12 849 25.07 -6.4 20.4 49 -15.5 4.1
15:25 1020 30.12 849 25.07 -6.6 20 52 -15 5
15:30 1020 30.12 849 25.07 -6.5 20.3 49 -15.5 4.1
15:35 1020 30.12 849 25.07 -6.5 20.3 49 -15.4 4.2
15:40 1020 30.12 849 25.07 -6.5 20.3 52 -14.7 5.5
15:45 1020 30.12 849 25.07 -5.6 21.9 47 -15.1 4.8
15:50 1020 30.12 849 25.07 -5.6 22 48 -14.9 5.1
15:55 1020 30.12 849 25.07 -6.1 21 49 -15.1 4.8
16:00 1020 30.12 849 25.07 -6.2 20.8 49 -15.3 4.5
16:05 1020 30.12 849 25.07 -6.1 21.1 49 -15.1 4.8
16:10 1020 30.12 849 25.07 -6 21.2 50 -14.8 5.4
16:15 1020 30.12 849 25.07 -5.8 21.5 50 -14.6 5.8
16:20 1020 30.12 849 25.07 -5.9 21.4 50 -14.7 5.5
16:25 1020 30.12 849 25.07 -5.8 21.6 50 -14.5 5.8
16:30 1020 30.12 849 25.07 -5.9 21.4 50 -14.7 5.6
16:35 1020 30.12 849 25.07 -5.9 21.3 52 -14.3 6.3
16:40 1020 30.12 849 25.07 -5.6 21.9 51 -14.3 6.3
16:45 1020 30.12 849 25.07 -5.8 21.5 51 -14.4 6
16:50 1020 30.12 849 25.07 -6.6 20.1 52 -15 5.1
16:55 1020 30.12 849 25.07 -6.7 20 54 -14.5 5.9
17:00 1020 30.12 849 25.07 -6.3 20.6 52 -14.7 5.6
17:05 1020 30.12 849 25.07 -6 21.2 50 -14.7 5.5
17:10 1020 30.12 849 25.07 -5.8 21.6 50 -14.5 5.9
17:15 1020 30.12 849 25.07 -6 21.3 51 -14.7 5.6
17:20 1020 30.12 849 25.07 -5.8 21.6 49 -14.8 5.4
17:25 1020 30.12 849 25.07 -5.3 22.5 49 -14.4 6.2
17:30 1020 30.12 849 25.07 -4.8 23.4 48 -14.3 6.3
17:35 1020 30.12 849 25.07 -4.7 23.6 47 -14.2 6.4
17:40 1020 30.12 849 25.07 -4.8 23.3 48 -14.2 6.5
17:45 1020 30.12 849 25.07 -4.9 23.2 48 -14.2 6.5
17:50 1020 30.12 849 25.07 -4.7 23.5 49 -13.9 7
17:55 1020 30.12 849 25.07 -4.8 23.3 49 -14.1 6.7
18:00 1020 30.12 849 25.07 -4.9 23.2 48 -14.2 6.4
18:05 1020 30.12 849 25.07 -4.7 23.6 47 -14.4 6.2
18:10 1020 30.12 849 25.07 -4.8 23.4 49 -13.8 7.1
18:15 1020 30.12 849 25.07 -4.9 23.2 50 -13.8 7.2
18:20 1020 30.12 849 25.07 -5 23 53 -13.2 8.3
18:25 1020 30.12 849 25.07 -6 21.2 56 -13.4 7.9
18:30 1020 30.12 849 25.07 -6.5 20.4 58 -13.4 7.9
18:35 1020 30.12 849 25.07 -6.4 20.5 59 -13.3 8.1
18:40 1020 30.12 849 25.07 -6.5 20.3 57 -13.8 7.2
18:45 1020 30.12 849 25.07 -6.8 19.7 60 -13.4 7.9
18:50 1020 30.12 849 25.07 -7.8 18 63 -13.7 7.3
18:55 1020 30.12 849 25.07 -7.5 18.6 60 -13.9 7
19:00 1020 30.12 849 25.07 -7.3 18.9 60 -13.8 7.2
19:05 1020 30.12 850 25.1 -7.5 18.5 61 -13.8 7.2
19:10 1020 30.12 850 25.1 -7.8 17.9 62 -13.9 7
19:15 1020 30.12 850 25.1 -8 17.5 63 -13.8 7.1
19:20 1020 30.12 850 25.1 -8.2 17.2 64 -14 6.9
19:25 1021 30.15 850 25.1 -8.3 17 62 -14.3 6.2
19:30 1021 30.15 850 25.1 -8.7 16.4 64 -14.3 6.2
19:35 1021 30.15 850 25.1 -8.8 16.2 64 -14.4 6.1
19:40 1021 30.15 850 25.1 -8.6 16.4 65 -14.1 6.6
19:45 1021 30.15 850 25.1 -8.8 16.3 67 -13.8 7.2
19:50 1021 30.15 850 25.1 -8.9 15.9 68 -13.8 7.2
19:55 1021 30.15 850 25.1 -9 15.8 68 -13.8 7.1
20:00 1021 30.15 850 25.1 -9.4 15.2 69 -14.1 6.7
20:05 1021 30.15 850 25.1 -9.5 15 69 -14.1 6.6
20:10 1021 30.15 850 25.1 -9.9 14.1 71 -14.3 6.3
20:15 1021 30.15 850 25.1 -10.2 13.7 71 -14.5 5.9
20:20 1021 30.15 850 25.1 -10.2 13.7 71 -14.6 5.8
20:25 1021 30.15 850 25.1 -10 14 72 -14.2 6.4
20:30 1021 30.15 850 25.1 -10.1 13.7 73 -14.2 6.5
20:35 1021 30.15 851 25.13 -9.8 14.3 71 -14.2 6.5
20:40 1022 30.18 851 25.13 -9.6 14.8 71 -14 6.9
20:45 1022 30.18 851 25.13 -9.4 15.1 70 -13.9 7
20:50 1022 30.18 851 25.13 -9.4 15 71 -13.7 7.3
20:55 1022 30.18 851 25.13 -9.3 15.2 69 -14 6.7
21:00 1022 30.18 851 25.13 -9.3 15.3 68 -14.1 6.7
21:05 1022 30.18 851 25.13 -9.1 15.6 69 -13.8 7.1
21:10 1022 30.18 851 25.13 -9.2 15.5 69 -13.9 7.1
21:15 1022 30.18 851 25.13 -9.3 15.3 70 -13.9 7.1
21:20 1022 30.18 851 25.13 -9.6 14.7 71 -14 6.8
21:25 1022 30.18 851 25.13 -9.8 14.3 73 -13.8 7.1
21:30 1022 30.18 851 25.13 -9.9 14.2 72 -14 6.9
21:35 1022 30.18 851 25.13 -10.1 13.9 72 -14.2 6.4
21:40 1022 30.18 851 25.13 -10.1 13.8 73 -14.1 6.6
21:45 1022 30.18 851 25.13 -10.2 13.6 73 -14.2 6.5
21:50 1022 30.18 851 25.13 -10.3 13.5 74 -14 6.8
21:55 1022 30.18 851 25.13 -10.3 13.4 76 -13.9 7
22:00 1022 30.18 851 25.13 -10.2 13.6 74 -14 6.8
22:05 1022 30.18 851 25.13 -10.1 13.8 74 -13.9 6.9
22:10 1022 30.18 851 25.13 -10.3 13.5 74 -14 6.8
22:15 1022 30.18 851 25.13 -10.2 13.7 73 -14.1 6.6
22:20 1022 30.18 851 25.13 -10.6 13 75 -14.2 6.4
22:25 1022 30.18 851 25.13 -10.5 13 74 -14.4 6.1
22:30 1022 30.18 851 25.13 -10.4 13.4 73 -14.3 6.3
22:35 1022 30.18 851 25.13 -10.2 13.7 73 -14.2 6.5
22:40 1022 30.18 851 25.13 -10 14 72 -14.1 6.5
22:45 1022 30.18 851 25.13 -10.1 13.8 73 -14.2 6.5
22:50 1022 30.18 851 25.13 -10.4 13.3 74 -14.2 6.5
22:55 1022 30.18 851 25.13 -10.4 13.3 73 -14.3 6.2
23:00 1022 30.18 851 25.13 -10.3 13.4 73 -14.3 6.2
23:05 1022 30.18 851 25.13 -10.7 12.8 74 -14.4 6
23:10 1022 30.18 851 25.13 -11.1 11.9 76 -14.6 5.7
23:15 1022 30.18 851 25.13 -11.3 11.7 76 -14.8 5.4
23:20 1022 30.18 851 25.13 -11.2 11.9 75 -14.8 5.3
23:25 1022 30.18 851 25.13 -11.1 12.1 74 -14.8 5.4
23:30 1022 30.18 851 25.13 -11 12.3 74 -14.8 5.4
23:35 1022 30.18 851 25.13 -11.1 12.1 74 -14.8 5.4
23:40 1022 30.18 852 25.16 -11.2 11.9 74 -15 5.1
23:45 1022 30.18 852 25.16 -11.7 11 76 -15.1 4.7
23:50 1023 30.21 852 25.16 -11.9 10.6 77 -15.1 4.9
23:55 1023 30.21 852 25.16 -11.7 11 77 -15 5.1
24:00 1023 30.21 852 25.16 -11.5 11.3 77 -14.8 5.3